sensor_id;sensor_type;location;lat;lon;timestamp;pressure;altitude;pressure_sealevel;temperature;humidity
56334;BME280;42240;53.626;55.886;2023-04-02T00:01:44;77296.41;;;-145.10;100.00
56334;BME280;42240;53.626;55.886;2023-04-02T00:03:17;77296.41;;;-145.10;100.00
56334;BME280;42240;53.626;55.886;2023-04-02T00:05:54;77300.38;;;-145.10;100.00
56334;BME280;42240;53.626;55.886;2023-04-02T00:08:48;77300.38;;;-145.10;100.00
56334;BME280;42240;53.626;55.886;2023-04-02T00:11:57;77296.41;;;-145.10;100.00
56334;BME280;42240;53.626;55.886;2023-04-02T00:13:44;77290.47;;;-145.10;100.00
56334;BME280;42240;53.626;55.886;2023-04-02T00:15:18;77286.53;;;-145.10;100.00
56334;BME280;42240;53.626;55.886;2023-04-02T00:16:51;77280.59;;;-145.10;100.00
56334;BME280;42240;53.626;55.886;2023-04-02T00:18:25;77272.69;;;-145.10;100.00
56334;BME280;42240;53.626;55.886;2023-04-02T00:20:02;77296.41;;;-145.10;100.00
56334;BME280;42240;53.626;55.886;2023-04-02T00:21:40;77320.13;;;-145.10;100.00
56334;BME280;42240;53.626;55.886;2023-04-02T00:23:14;77363.66;;;-145.10;100.00
56334;BME280;42240;53.626;55.886;2023-04-02T00:24:51;77407.16;;;-145.10;100.00
56334;BME280;42240;53.626;55.886;2023-04-02T00:26:38;77454.63;;;-145.10;100.00
56334;BME280;42240;53.626;55.886;2023-04-02T00:28:14;77517.91;;;-145.10;100.00
56334;BME280;42240;53.626;55.886;2023-04-02T00:29:48;77589.13;;;-145.10;100.00
56334;BME280;42240;53.626;55.886;2023-04-02T00:31:21;77612.84;;;-145.10;100.00
56334;BME280;42240;53.626;55.886;2023-04-02T00:32:55;77628.69;;;-145.10;100.00
56334;BME280;42240;53.626;55.886;2023-04-02T00:34:29;77658.34;;;-145.10;100.00
56334;BME280;42240;53.626;55.886;2023-04-02T00:36:04;77690.00;;;-145.10;100.00
56334;BME280;42240;53.626;55.886;2023-04-02T00:37:39;77693.97;;;-145.10;100.00
56334;BME280;42240;53.626;55.886;2023-04-02T00:39:23;77703.84;;;-145.10;100.00
56334;BME280;42240;53.626;55.886;2023-04-02T00:41:03;77707.81;;;-145.10;100.00
56334;BME280;42240;53.626;55.886;2023-04-02T00:42:37;77735.50;;;-145.10;100.00
56334;BME280;42240;53.626;55.886;2023-04-02T00:44:13;77729.56;;;-145.10;100.00
56334;BME280;42240;53.626;55.886;2023-04-02T00:45:48;77743.41;;;-145.10;100.00
56334;BME280;42240;53.626;55.886;2023-04-02T00:47:27;77735.50;;;-145.10;100.00
56334;BME280;42240;53.626;55.886;2023-04-02T00:49:07;77737.47;;;-145.10;100.00
56334;BME280;42240;53.626;55.886;2023-04-02T00:50:42;77745.38;;;-145.10;100.00
56334;BME280;42240;53.626;55.886;2023-04-02T00:52:17;77747.34;;;-145.10;100.00
56334;BME280;42240;53.626;55.886;2023-04-02T00:53:53;77745.38;;;-145.10;100.00
56334;BME280;42240;53.626;55.886;2023-04-02T00:55:31;77741.44;;;-145.10;100.00
56334;BME280;42240;53.626;55.886;2023-04-02T00:57:10;77733.50;;;-145.10;100.00
56334;BME280;42240;53.626;55.886;2023-04-02T00:58:49;77727.59;;;-145.10;100.00
56334;BME280;42240;53.626;55.886;2023-04-02T01:00:30;77715.72;;;-145.10;100.00
56334;BME280;42240;53.626;55.886;2023-04-02T01:03:54;77719.66;;;-145.10;100.00
56334;BME280;42240;53.626;55.886;2023-04-02T01:05:32;77715.72;;;-145.10;100.00
56334;BME280;42240;53.626;55.886;2023-04-02T01:07:07;77715.72;;;-145.10;100.00
56334;BME280;42240;53.626;55.886;2023-04-02T01:10:42;77723.63;;;-145.10;100.00
56334;BME280;42240;53.626;55.886;2023-04-02T01:20:58;77723.63;;;-145.10;100.00
56334;BME280;42240;53.626;55.886;2023-04-02T01:22:43;77719.66;;;-145.10;100.00
56334;BME280;42240;53.626;55.886;2023-04-02T01:24:19;77725.59;;;-145.10;100.00
56334;BME280;42240;53.626;55.886;2023-04-02T01:26:13;77721.66;;;-145.10;100.00
56334;BME280;42240;53.626;55.886;2023-04-02T01:27:50;77731.53;;;-145.10;100.00
56334;BME280;42240;53.626;55.886;2023-04-02T01:31:04;77743.41;;;-145.10;100.00
56334;BME280;42240;53.626;55.886;2023-04-02T01:32:37;77755.28;;;-145.10;100.00
56334;BME280;42240;53.626;55.886;2023-04-02T01:34:12;77765.16;;;-145.10;100.00
56334;BME280;42240;53.626;55.886;2023-04-02T01:35:45;77775.06;;;-145.10;100.00
56334;BME280;42240;53.626;55.886;2023-04-02T01:37:33;77763.19;;;-145.10;100.00
56334;BME280;42240;53.626;55.886;2023-04-02T01:39:16;77759.22;;;-145.10;100.00
56334;BME280;42240;53.626;55.886;2023-04-02T01:41:11;77767.13;;;-145.10;100.00
56334;BME280;42240;53.626;55.886;2023-04-02T01:45:12;77773.06;;;-145.10;100.00
56334;BME280;42240;53.626;55.886;2023-04-02T01:46:40;77775.06;;;-145.10;100.00
56334;BME280;42240;53.626;55.886;2023-04-02T01:48:15;77767.13;;;-145.10;100.00
56334;BME280;42240;53.626;55.886;2023-04-02T01:49:48;77769.13;;;-145.10;100.00
56334;BME280;42240;53.626;55.886;2023-04-02T01:51:24;77757.25;;;-145.10;100.00
56334;BME280;42240;53.626;55.886;2023-04-02T01:53:07;77759.22;;;-145.10;100.00
56334;BME280;42240;53.626;55.886;2023-04-02T01:54:41;77741.44;;;-145.10;100.00
56334;BME280;42240;53.626;55.886;2023-04-02T01:56:14;77739.44;;;-145.10;100.00
56334;BME280;42240;53.626;55.886;2023-04-02T01:57:48;77703.84;;;-145.10;100.00
56334;BME280;42240;53.626;55.886;2023-04-02T01:59:22;77680.09;;;-145.10;100.00
56334;BME280;42240;53.626;55.886;2023-04-02T02:02:35;77602.97;;;-145.10;100.00
56334;BME280;42240;53.626;55.886;2023-04-02T02:04:11;77537.69;;;-145.10;100.00
56334;BME280;42240;53.626;55.886;2023-04-02T02:05:45;77498.16;;;-145.10;100.00
56334;BME280;42240;53.626;55.886;2023-04-02T02:07:19;77438.81;;;-145.10;100.00
56334;BME280;42240;53.626;55.886;2023-04-02T02:09:06;77405.19;;;-145.10;100.00
56334;BME280;42240;53.626;55.886;2023-04-02T02:10:40;77377.50;;;-145.10;100.00
56334;BME280;42240;53.626;55.886;2023-04-02T02:12:14;77351.78;;;-145.10;100.00
56334;BME280;42240;53.626;55.886;2023-04-02T02:13:49;77332.00;;;-145.10;100.00
56334;BME280;42240;53.626;55.886;2023-04-02T02:15:24;77359.69;;;-145.10;100.00
56334;BME280;42240;53.626;55.886;2023-04-02T02:16:58;77383.44;;;-145.10;100.00
56334;BME280;42240;53.626;55.886;2023-04-02T02:18:33;77436.84;;;-145.10;100.00
56334;BME280;42240;53.626;55.886;2023-04-02T02:20:06;77442.75;;;-145.10;100.00
56334;BME280;42240;53.626;55.886;2023-04-02T02:21:45;77440.78;;;-145.10;100.00
56334;BME280;42240;53.626;55.886;2023-04-02T02:23:19;77424.97;;;-145.10;100.00
56334;BME280;42240;53.626;55.886;2023-04-02T02:24:53;77419.03;;;-145.10;100.00
56334;BME280;42240;53.626;55.886;2023-04-02T02:26:27;77413.09;;;-145.10;100.00
56334;BME280;42240;53.626;55.886;2023-04-02T02:29:38;77359.69;;;-145.10;100.00
56334;BME280;42240;53.626;55.886;2023-04-02T02:31:15;77353.75;;;-145.10;100.00
56334;BME280;42240;53.626;55.886;2023-04-02T02:33:13;77324.09;;;-145.10;100.00
56334;BME280;42240;53.626;55.886;2023-04-02T02:34:48;77322.13;;;-145.10;100.00
56334;BME280;42240;53.626;55.886;2023-04-02T02:36:41;77308.28;;;-145.10;100.00
56334;BME280;42240;53.626;55.886;2023-04-02T02:40:15;77074.91;;;-145.10;100.00
56334;BME280;42240;53.626;55.886;2023-04-02T02:41:54;76993.81;;;-145.10;100.00
56334;BME280;42240;53.626;55.886;2023-04-02T02:43:29;76914.72;;;-145.10;99.91
56334;BME280;42240;53.626;55.886;2023-04-02T02:45:04;76788.16;;;-145.10;97.82
56334;BME280;42240;53.626;55.886;2023-04-02T02:46:42;76661.59;;;-145.10;94.59
56334;BME280;42240;53.626;55.886;2023-04-02T02:48:18;76588.44;;;-145.10;87.46
56334;BME280;42240;53.626;55.886;2023-04-02T02:49:53;76523.19;;;-145.10;87.79
56334;BME280;42240;53.626;55.886;2023-04-02T02:51:28;76448.03;;;-145.10;81.50
56334;BME280;42240;53.626;55.886;2023-04-02T02:53:19;76378.84;;;-145.10;79.31
56334;BME280;42240;53.626;55.886;2023-04-02T02:54:56;76309.63;;;-145.10;78.07
56334;BME280;42240;53.626;55.886;2023-04-02T02:56:36;76285.91;;;-145.10;69.83
56334;BME280;42240;53.626;55.886;2023-04-02T02:58:19;76234.50;;;-145.10;67.54
56334;BME280;42240;53.626;55.886;2023-04-02T03:00:06;76238.47;;;-145.10;64.42
56334;BME280;42240;53.626;55.886;2023-04-02T03:01:41;76256.25;;;-145.10;61.83
56334;BME280;42240;53.626;55.886;2023-04-02T03:03:16;76216.72;;;-145.10;61.89
56334;BME280;42240;53.626;55.886;2023-04-02T03:04:54;76141.56;;;-145.10;61.52
56334;BME280;42240;53.626;55.886;2023-04-02T03:06:29;76145.53;;;-145.10;59.03
56334;BME280;42240;53.626;55.886;2023-04-02T03:08:04;76129.72;;;-145.10;60.18
56334;BME280;42240;53.626;55.886;2023-04-02T03:11:13;76092.16;;;-145.10;57.81
56334;BME280;42240;53.626;55.886;2023-04-02T03:14:42;75995.25;;;-145.10;58.42
56334;BME280;42240;53.626;55.886;2023-04-02T03:16:25;75973.50;;;-145.10;57.14
56334;BME280;42240;53.626;55.886;2023-04-02T03:18:33;76007.13;;;-145.10;57.03
56334;BME280;42240;53.626;55.886;2023-04-02T03:20:03;75973.50;;;-145.10;56.94
56334;BME280;42240;53.626;55.886;2023-04-02T03:21:51;75882.56;;;-145.10;57.04
56334;BME280;42240;53.626;55.886;2023-04-02T03:23:27;75908.28;;;-145.10;54.82
56334;BME280;42240;53.626;55.886;2023-04-02T03:27:17;75781.75;;;-145.10;52.68
56334;BME280;42240;53.626;55.886;2023-04-02T03:29:00;75789.66;;;-145.10;50.59
56334;BME280;42240;53.626;55.886;2023-04-02T03:30:41;75738.25;;;-145.10;50.16
56334;BME280;42240;53.626;55.886;2023-04-02T03:32:19;75676.97;;;-145.10;48.82
56334;BME280;42240;53.626;55.886;2023-04-02T03:33:58;75550.44;;;-145.10;47.50
56334;BME280;42240;53.626;55.886;2023-04-02T03:37:28;75457.53;;;-145.10;44.61
56334;BME280;42240;53.626;55.886;2023-04-02T03:41:05;75340.91;;;-145.10;41.85
56334;BME280;42240;53.626;55.886;2023-04-02T03:42:47;75251.94;;;-145.10;40.53
56334;BME280;42240;53.626;55.886;2023-04-02T03:44:25;75240.09;;;-145.10;40.19
56334;BME280;42240;53.626;55.886;2023-04-02T03:47:55;75249.97;;;-145.10;39.61
56334;BME280;42240;53.626;55.886;2023-04-02T03:51:10;75145.19;;;-145.10;38.59
56334;BME280;42240;53.626;55.886;2023-04-02T03:52:45;75145.19;;;-145.10;38.29
56334;BME280;42240;53.626;55.886;2023-04-02T03:54:19;75123.47;;;-145.10;38.20
56334;BME280;42240;53.626;55.886;2023-04-02T03:55:52;75113.56;;;-145.10;36.42
56334;BME280;42240;53.626;55.886;2023-04-02T04:00:48;74991.03;;;-145.10;35.08
56334;BME280;42240;53.626;55.886;2023-04-02T04:02:36;74955.44;;;-145.10;35.04
56334;BME280;42240;53.626;55.886;2023-04-02T04:04:15;75074.03;;;-145.10;31.37
56334;BME280;42240;53.626;55.886;2023-04-02T04:05:49;74957.41;;;-145.10;30.26
56334;BME280;42240;53.626;55.886;2023-04-02T04:07:31;74898.13;;;-145.10;27.99
56334;BME280;42240;53.626;55.886;2023-04-02T04:10:41;74923.81;;;-145.10;27.81
56334;BME280;42240;53.626;55.886;2023-04-02T04:12:31;74945.56;;;-145.10;26.61
56334;BME280;42240;53.626;55.886;2023-04-02T04:15:49;74884.28;;;-145.10;26.37
56334;BME280;42240;53.626;55.886;2023-04-02T04:19:05;75060.22;;;-145.10;26.44
56334;BME280;42240;53.626;55.886;2023-04-02T04:20:46;74892.19;;;-145.10;26.18
56334;BME280;42240;53.626;55.886;2023-04-02T04:22:23;74884.28;;;-145.10;25.92
56334;BME280;42240;53.626;55.886;2023-04-02T04:24:29;74973.22;;;-145.10;25.46
56334;BME280;42240;53.626;55.886;2023-04-02T04:26:15;74848.72;;;-145.10;26.01
56334;BME280;42240;53.626;55.886;2023-04-02T04:29:58;74886.25;;;-145.10;25.02
56334;BME280;42240;53.626;55.886;2023-04-02T04:31:47;74856.63;;;-145.10;25.06
56334;BME280;42240;53.626;55.886;2023-04-02T04:33:24;74933.69;;;-145.10;25.26
56334;BME280;42240;53.626;55.886;2023-04-02T04:36:56;74967.31;;;-145.10;25.17
56334;BME280;42240;53.626;55.886;2023-04-02T04:38:37;74850.69;;;-145.10;25.39
56334;BME280;42240;53.626;55.886;2023-04-02T04:40:21;74815.09;;;-145.10;24.23
56334;BME280;42240;53.626;55.886;2023-04-02T04:42:00;74777.56;;;-145.10;25.26
56334;BME280;42240;53.626;55.886;2023-04-02T04:48:41;74686.63;;;-145.10;24.02
56334;BME280;42240;53.626;55.886;2023-04-02T04:50:27;74862.53;;;-145.10;24.20
56334;BME280;42240;53.626;55.886;2023-04-02T04:52:15;74821.03;;;-145.10;24.11
56334;BME280;42240;53.626;55.886;2023-04-02T04:53:51;74906.03;;;-145.10;24.31
56334;BME280;42240;53.626;55.886;2023-04-02T04:55:28;74931.72;;;-145.10;24.48
56334;BME280;42240;53.626;55.886;2023-04-02T04:57:04;74836.84;;;-145.10;24.46
56334;BME280;42240;53.626;55.886;2023-04-02T05:01:47;74811.16;;;-145.10;24.85
56334;BME280;42240;53.626;55.886;2023-04-02T05:05:00;74963.34;;;-145.10;24.92
56334;BME280;42240;53.626;55.886;2023-04-02T05:08:29;74763.72;;;-145.10;24.06
56334;BME280;42240;53.626;55.886;2023-04-02T05:10:13;74702.44;;;-145.10;24.17
56334;BME280;42240;53.626;55.886;2023-04-02T05:13:28;74694.53;;;-145.10;24.14
56334;BME280;42240;53.626;55.886;2023-04-02T05:17:09;74617.47;;;-145.10;23.71
56334;BME280;42240;53.626;55.886;2023-04-02T05:18:40;74714.31;;;-145.10;24.17
56334;BME280;42240;53.626;55.886;2023-04-02T05:20:30;74884.28;;;-145.10;23.96
56334;BME280;42240;53.626;55.886;2023-04-02T05:25:25;74522.59;;;-145.10;22.60
56334;BME280;42240;53.626;55.886;2023-04-02T05:27:08;74492.94;;;-145.10;22.57
56334;BME280;42240;53.626;55.886;2023-04-02T05:28:46;74607.59;;;-145.10;22.30
56334;BME280;42240;53.626;55.886;2023-04-02T05:32:11;74572.00;;;-145.10;24.09
56334;BME280;42240;53.626;55.886;2023-04-02T05:33:46;74548.28;;;-145.10;23.36
56334;BME280;42240;53.626;55.886;2023-04-02T05:35:21;74641.19;;;-145.10;22.88
56334;BME280;42240;53.626;55.886;2023-04-02T05:36:58;74568.06;;;-145.10;23.16
56334;BME280;42240;53.626;55.886;2023-04-02T05:38:32;74635.25;;;-145.10;23.45
56334;BME280;42240;53.626;55.886;2023-04-02T05:40:11;74577.94;;;-145.10;23.48
56334;BME280;42240;53.626;55.886;2023-04-02T05:41:47;74619.44;;;-145.10;22.72
56334;BME280;42240;53.626;55.886;2023-04-02T05:43:35;74603.63;;;-145.10;23.30
56334;BME280;42240;53.626;55.886;2023-04-02T05:45:16;74621.41;;;-145.10;23.38
56334;BME280;42240;53.626;55.886;2023-04-02T05:46:56;74566.06;;;-145.10;23.20
56334;BME280;42240;53.626;55.886;2023-04-02T05:48:33;74560.16;;;-145.10;23.44
56334;BME280;42240;53.626;55.886;2023-04-02T05:51:49;74532.47;;;-145.10;23.10
56334;BME280;42240;53.626;55.886;2023-04-02T05:53:24;74631.28;;;-145.10;22.81
56334;BME280;42240;53.626;55.886;2023-04-02T05:55:18;74787.44;;;-145.10;23.21
56334;BME280;42240;53.626;55.886;2023-04-02T05:56:59;74708.38;;;-145.10;23.70
56334;BME280;42240;53.626;55.886;2023-04-02T05:58:36;74825.00;;;-145.10;23.27
56334;BME280;42240;53.626;55.886;2023-04-02T06:05:31;74769.66;;;-145.10;23.85
56334;BME280;42240;53.626;55.886;2023-04-02T06:07:27;74698.50;;;-145.10;23.31
56334;BME280;42240;53.626;55.886;2023-04-02T06:09:04;74666.88;;;-145.10;23.59
56334;BME280;42240;53.626;55.886;2023-04-02T06:10:52;74728.16;;;-145.10;24.33
56334;BME280;42240;53.626;55.886;2023-04-02T06:14:04;74653.03;;;-145.10;23.48
56334;BME280;42240;53.626;55.886;2023-04-02T06:15:37;74647.09;;;-145.10;23.64
56334;BME280;42240;53.626;55.886;2023-04-02T06:17:19;74730.13;;;-145.10;23.27
56334;BME280;42240;53.626;55.886;2023-04-02T06:18:52;74821.03;;;-145.10;22.90
56334;BME280;42240;53.626;55.886;2023-04-02T06:20:26;74698.50;;;-145.10;23.69
56334;BME280;42240;53.626;55.886;2023-04-02T06:22:06;74643.16;;;-145.10;23.18
56334;BME280;42240;53.626;55.886;2023-04-02T06:25:38;74651.06;;;-145.10;22.92
56334;BME280;42240;53.626;55.886;2023-04-02T06:27:14;74643.16;;;-145.10;22.62
56334;BME280;42240;53.626;55.886;2023-04-02T06:28:52;74575.97;;;-145.10;23.43
56334;BME280;42240;53.626;55.886;2023-04-02T06:30:31;74664.91;;;-145.10;22.67
56334;BME280;42240;53.626;55.886;2023-04-02T06:32:06;74660.94;;;-145.10;23.88
56334;BME280;42240;53.626;55.886;2023-04-02T06:33:43;74791.38;;;-145.10;23.82
56334;BME280;42240;53.626;55.886;2023-04-02T06:35:18;74815.09;;;-145.10;23.55
56334;BME280;42240;53.626;55.886;2023-04-02T06:37:01;74900.09;;;-145.10;24.14
56334;BME280;42240;53.626;55.886;2023-04-02T06:38:37;74884.28;;;-145.10;24.04
56334;BME280;42240;53.626;55.886;2023-04-02T06:40:24;74951.50;;;-145.10;24.71
56334;BME280;42240;53.626;55.886;2023-04-02T06:44:00;74975.22;;;-145.10;25.26
56334;BME280;42240;53.626;55.886;2023-04-02T06:46:05;74994.97;;;-145.10;24.69
56334;BME280;42240;53.626;55.886;2023-04-02T06:48:14;75085.91;;;-145.10;24.93
56334;BME280;42240;53.626;55.886;2023-04-02T06:49:57;75101.72;;;-145.10;25.05
56334;BME280;42240;53.626;55.886;2023-04-02T06:51:32;75164.97;;;-145.10;25.28
56334;BME280;42240;53.626;55.886;2023-04-02T06:53:08;75161.00;;;-145.10;25.56
56334;BME280;42240;53.626;55.886;2023-04-02T06:54:46;75208.47;;;-145.10;25.65
56334;BME280;42240;53.626;55.886;2023-04-02T06:56:24;75259.84;;;-145.10;25.98
56334;BME280;42240;53.626;55.886;2023-04-02T06:57:59;75311.25;;;-145.10;25.83
56334;BME280;42240;53.626;55.886;2023-04-02T06:59:32;75340.91;;;-145.10;25.64
56334;BME280;42240;53.626;55.886;2023-04-02T07:01:07;75340.91;;;-145.10;26.25
56334;BME280;42240;53.626;55.886;2023-04-02T07:02:46;75374.50;;;-145.10;25.94
56334;BME280;42240;53.626;55.886;2023-04-02T07:04:21;75364.63;;;-145.10;25.83
56334;BME280;42240;53.626;55.886;2023-04-02T07:05:57;75303.34;;;-145.10;26.16
56334;BME280;42240;53.626;55.886;2023-04-02T07:07:30;75319.16;;;-145.10;25.82
56334;BME280;42240;53.626;55.886;2023-04-02T07:09:06;75344.84;;;-145.10;25.58
56334;BME280;42240;53.626;55.886;2023-04-02T07:10:42;75412.06;;;-145.10;25.96
56334;BME280;42240;53.626;55.886;2023-04-02T07:12:18;75384.38;;;-145.10;25.95
56334;BME280;42240;53.626;55.886;2023-04-02T07:13:54;75313.22;;;-145.10;26.93
56334;BME280;42240;53.626;55.886;2023-04-02T07:15:28;75406.13;;;-145.10;25.91
56334;BME280;42240;53.626;55.886;2023-04-02T07:17:02;75388.34;;;-145.10;26.82
56334;BME280;42240;53.626;55.886;2023-04-02T07:18:35;75423.94;;;-145.10;26.25
56334;BME280;42240;53.626;55.886;2023-04-02T07:20:29;75342.88;;;-145.10;27.00
56334;BME280;42240;53.626;55.886;2023-04-02T07:22:06;75342.88;;;-145.10;26.70
56334;BME280;42240;53.626;55.886;2023-04-02T07:23:43;75374.50;;;-145.10;26.31
56334;BME280;42240;53.626;55.886;2023-04-02T07:25:16;75418.00;;;-145.10;25.84
56334;BME280;42240;53.626;55.886;2023-04-02T07:26:48;75362.63;;;-145.10;26.13
56334;BME280;42240;53.626;55.886;2023-04-02T07:28:21;75394.28;;;-145.10;26.28
56334;BME280;42240;53.626;55.886;2023-04-02T07:29:55;75437.75;;;-145.10;26.18
56334;BME280;42240;53.626;55.886;2023-04-02T07:31:27;75439.75;;;-145.10;26.09
56334;BME280;42240;53.626;55.886;2023-04-02T07:33:00;75398.22;;;-145.10;26.99
56334;BME280;42240;53.626;55.886;2023-04-02T07:34:33;75441.72;;;-145.10;26.28
56334;BME280;42240;53.626;55.886;2023-04-02T07:36:06;75437.75;;;-145.10;26.02
56334;BME280;42240;53.626;55.886;2023-04-02T07:37:39;75408.09;;;-145.10;26.60
56334;BME280;42240;53.626;55.886;2023-04-02T07:39:11;75327.06;;;-145.10;27.53
56334;BME280;42240;53.626;55.886;2023-04-02T07:40:44;75321.13;;;-145.10;26.10
56334;BME280;42240;53.626;55.886;2023-04-02T07:42:17;75334.97;;;-145.10;25.89
56334;BME280;42240;53.626;55.886;2023-04-02T07:43:50;75366.59;;;-145.10;25.83
56334;BME280;42240;53.626;55.886;2023-04-02T07:45:22;75374.50;;;-145.10;25.70
56334;BME280;42240;53.626;55.886;2023-04-02T07:46:55;75412.06;;;-145.10;24.93
56334;BME280;42240;53.626;55.886;2023-04-02T07:48:28;75370.53;;;-145.10;24.75
56334;BME280;42240;53.626;55.886;2023-04-02T07:50:01;75390.31;;;-145.10;25.22
56334;BME280;42240;53.626;55.886;2023-04-02T07:51:34;75334.97;;;-145.10;25.64
56334;BME280;42240;53.626;55.886;2023-04-02T07:53:14;75342.88;;;-145.10;25.03
56334;BME280;42240;53.626;55.886;2023-04-02T07:54:58;75331.00;;;-145.10;25.13
56334;BME280;42240;53.626;55.886;2023-04-02T07:56:34;75329.03;;;-145.10;25.15
56334;BME280;42240;53.626;55.886;2023-04-02T07:58:07;75344.84;;;-145.10;24.33
56334;BME280;42240;53.626;55.886;2023-04-02T07:59:40;75346.81;;;-145.10;24.90
56334;BME280;42240;53.626;55.886;2023-04-02T08:01:22;75327.06;;;-145.10;24.26
56334;BME280;42240;53.626;55.886;2023-04-02T08:02:55;75321.13;;;-145.10;24.78
56334;BME280;42240;53.626;55.886;2023-04-02T08:04:28;75269.72;;;-145.10;25.50
56334;BME280;42240;53.626;55.886;2023-04-02T08:06:01;75267.75;;;-145.10;24.71
56334;BME280;42240;53.626;55.886;2023-04-02T08:07:34;75244.03;;;-145.10;24.72
56334;BME280;42240;53.626;55.886;2023-04-02T08:09:07;75232.19;;;-145.10;24.19
56334;BME280;42240;53.626;55.886;2023-04-02T08:10:40;75232.19;;;-145.10;24.45
56334;BME280;42240;53.626;55.886;2023-04-02T08:12:13;75206.47;;;-145.10;24.67
56334;BME280;42240;53.626;55.886;2023-04-02T08:13:46;75202.53;;;-145.10;24.81
56334;BME280;42240;53.626;55.886;2023-04-02T08:15:19;75149.16;;;-145.10;24.39
56334;BME280;42240;53.626;55.886;2023-04-02T08:16:53;75145.19;;;-145.10;23.48
56334;BME280;42240;53.626;55.886;2023-04-02T08:18:28;75170.91;;;-145.10;23.58
56334;BME280;42240;53.626;55.886;2023-04-02T08:20:01;75141.25;;;-145.10;23.63
56334;BME280;42240;53.626;55.886;2023-04-02T08:21:35;75155.09;;;-145.10;23.00
56334;BME280;42240;53.626;55.886;2023-04-02T08:23:12;75168.91;;;-145.10;23.30
56334;BME280;42240;53.626;55.886;2023-04-02T08:24:46;75287.53;;;-145.10;21.87
56334;BME280;42240;53.626;55.886;2023-04-02T08:26:19;75238.09;;;-145.10;22.00
56334;BME280;42240;53.626;55.886;2023-04-02T08:27:53;75329.03;;;-145.10;21.33
56334;BME280;42240;53.626;55.886;2023-04-02T08:29:26;75309.28;;;-145.10;22.25
56334;BME280;42240;53.626;55.886;2023-04-02T08:31:03;75334.97;;;-145.10;21.61
56334;BME280;42240;53.626;55.886;2023-04-02T08:32:36;75307.28;;;-145.10;22.39
56334;BME280;42240;53.626;55.886;2023-04-02T08:34:09;75323.09;;;-145.10;21.76
56334;BME280;42240;53.626;55.886;2023-04-02T08:35:43;75307.28;;;-145.10;21.99
56334;BME280;42240;53.626;55.886;2023-04-02T08:37:16;75313.22;;;-145.10;21.60
56334;BME280;42240;53.626;55.886;2023-04-02T08:38:49;75291.47;;;-145.10;21.94
56334;BME280;42240;53.626;55.886;2023-04-02T08:40:36;75248.00;;;-145.10;22.58
56334;BME280;42240;53.626;55.886;2023-04-02T08:47:25;75257.88;;;-145.10;22.52
56334;BME280;42240;53.626;55.886;2023-04-02T08:49:02;75216.38;;;-145.10;21.82
56334;BME280;42240;53.626;55.886;2023-04-02T08:50:41;75232.19;;;-145.10;20.76
56334;BME280;42240;53.626;55.886;2023-04-02T08:52:21;75230.19;;;-145.10;20.98
56334;BME280;42240;53.626;55.886;2023-04-02T08:53:57;75271.72;;;-145.10;20.45
56334;BME280;42240;53.626;55.886;2023-04-02T08:58:50;75263.81;;;-145.10;20.44
56334;BME280;42240;53.626;55.886;2023-04-02T09:00:35;75234.16;;;-145.10;21.07
56334;BME280;42240;53.626;55.886;2023-04-02T09:02:23;75281.59;;;-145.10;20.10
56334;BME280;42240;53.626;55.886;2023-04-02T09:04:00;75315.19;;;-145.10;19.52
56334;BME280;42240;53.626;55.886;2023-04-02T09:05:36;75291.47;;;-145.10;20.55
56334;BME280;42240;53.626;55.886;2023-04-02T09:07:11;75295.44;;;-145.10;19.93
56334;BME280;42240;53.626;55.886;2023-04-02T09:08:45;75228.22;;;-145.10;20.49
56334;BME280;42240;53.626;55.886;2023-04-02T09:10:19;75212.41;;;-145.10;20.70
56334;BME280;42240;53.626;55.886;2023-04-02T09:11:57;75246.00;;;-145.10;19.80
56334;BME280;42240;53.626;55.886;2023-04-02T09:13:36;75192.63;;;-145.10;21.13
56334;BME280;42240;53.626;55.886;2023-04-02T09:16:48;75151.13;;;-145.10;20.94
56334;BME280;42240;53.626;55.886;2023-04-02T09:18:22;75161.00;;;-145.10;20.76
56334;BME280;42240;53.626;55.886;2023-04-02T09:19:56;75228.22;;;-145.10;19.37
56334;BME280;42240;53.626;55.886;2023-04-02T09:21:34;75206.47;;;-145.10;19.65
56334;BME280;42240;53.626;55.886;2023-04-02T09:23:21;75259.84;;;-145.10;19.13
56334;BME280;42240;53.626;55.886;2023-04-02T09:24:59;75236.13;;;-145.10;19.46
56334;BME280;42240;53.626;55.886;2023-04-02T09:26:33;75248.00;;;-145.10;19.54
56334;BME280;42240;53.626;55.886;2023-04-02T09:28:05;75228.22;;;-145.10;20.29
56334;BME280;42240;53.626;55.886;2023-04-02T09:29:42;75269.72;;;-145.10;19.43
56334;BME280;42240;53.626;55.886;2023-04-02T09:31:23;75265.78;;;-145.10;19.79
56334;BME280;42240;53.626;55.886;2023-04-02T09:33:00;75238.09;;;-145.10;19.46
56334;BME280;42240;53.626;55.886;2023-04-02T09:34:34;75226.25;;;-145.10;19.40
56334;BME280;42240;53.626;55.886;2023-04-02T09:36:16;75259.84;;;-145.10;18.93
56334;BME280;42240;53.626;55.886;2023-04-02T09:39:41;75240.09;;;-145.10;19.61
56334;BME280;42240;53.626;55.886;2023-04-02T09:41:18;75222.28;;;-145.10;19.35
56334;BME280;42240;53.626;55.886;2023-04-02T09:43:01;75212.41;;;-145.10;19.87
56334;BME280;42240;53.626;55.886;2023-04-02T09:44:35;75238.09;;;-145.10;18.92
56334;BME280;42240;53.626;55.886;2023-04-02T09:46:23;75218.34;;;-145.10;19.87
56334;BME280;42240;53.626;55.886;2023-04-02T09:47:57;75220.31;;;-145.10;19.30
56334;BME280;42240;53.626;55.886;2023-04-02T09:49:36;75188.69;;;-145.10;19.66
56334;BME280;42240;53.626;55.886;2023-04-02T09:51:17;75224.28;;;-145.10;19.11
56334;BME280;42240;53.626;55.886;2023-04-02T09:52:51;75172.88;;;-145.10;20.02